sensor_id;sensor_type;location;lat;lon;timestamp;pressure;altitude;pressure_sealevel;temperature;humidity
54806;BME280;62866;55.776;37.496;2023-05-19T00:01:35;100473.41;;;16.38;74.27
54806;BME280;62866;55.776;37.496;2023-05-19T00:04:02;100468.84;;;16.25;74.77
54806;BME280;62866;55.776;37.496;2023-05-19T00:06:32;100480.06;;;16.22;74.84
54806;BME280;62866;55.776;37.496;2023-05-19T00:09:03;100468.22;;;16.10;75.01
54806;BME280;62866;55.776;37.496;2023-05-19T00:11:29;100480.69;;;16.17;75.07
54806;BME280;62866;55.776;37.496;2023-05-19T00:13:57;100491.69;;;16.09;75.30
54806;BME280;62866;55.776;37.496;2023-05-19T00:16:24;100484.22;;;15.98;75.58
54806;BME280;62866;55.776;37.496;2023-05-19T00:18:50;100486.09;;;15.98;75.17
54806;BME280;62866;55.776;37.496;2023-05-19T00:21:18;100496.84;;;15.84;75.43
54806;BME280;62866;55.776;37.496;2023-05-19T00:23:43;100492.91;;;15.87;75.01
54806;BME280;62866;55.776;37.496;2023-05-19T00:26:09;100491.44;;;15.84;74.72
54806;BME280;62866;55.776;37.496;2023-05-19T00:28:35;100504.34;;;15.89;74.82
54806;BME280;62866;55.776;37.496;2023-05-19T00:31:00;100470.28;;;15.75;74.08
54806;BME280;62866;55.776;37.496;2023-05-19T00:33:26;100512.19;;;15.84;74.35
54806;BME280;62866;55.776;37.496;2023-05-19T00:35:52;100501.59;;;15.69;74.72
54806;BME280;62866;55.776;37.496;2023-05-19T00:38:18;100500.13;;;15.67;74.51
54806;BME280;62866;55.776;37.496;2023-05-19T00:40:44;100499.94;;;15.75;74.20
54806;BME280;62866;55.776;37.496;2023-05-19T00:43:09;100496.44;;;15.81;73.84
54806;BME280;62866;55.776;37.496;2023-05-19T00:45:35;100503.47;;;15.82;73.90
54806;BME280;62866;55.776;37.496;2023-05-19T00:48:00;100510.31;;;15.84;73.72
54806;BME280;62866;55.776;37.496;2023-05-19T00:50:27;100506.41;;;15.93;73.56
54806;BME280;62866;55.776;37.496;2023-05-19T00:52:55;100509.94;;;15.94;73.65
54806;BME280;62866;55.776;37.496;2023-05-19T00:55:22;100497.09;;;15.89;73.49
54806;BME280;62866;55.776;37.496;2023-05-19T00:57:51;100484.16;;;15.65;73.30
54806;BME280;62866;55.776;37.496;2023-05-19T01:00:17;100511.09;;;15.65;73.94
54806;BME280;62866;55.776;37.496;2023-05-19T01:02:43;100509.47;;;15.64;73.90
54806;BME280;62866;55.776;37.496;2023-05-19T01:05:08;100499.09;;;15.54;73.81
54806;BME280;62866;55.776;37.496;2023-05-19T01:07:34;100501.94;;;15.53;73.88
54806;BME280;62866;55.776;37.496;2023-05-19T01:10:01;100527.69;;;15.55;74.07
54806;BME280;62866;55.776;37.496;2023-05-19T01:12:27;100524.72;;;15.50;74.17
54806;BME280;62866;55.776;37.496;2023-05-19T01:14:53;100524.06;;;15.35;74.59
54806;BME280;62866;55.776;37.496;2023-05-19T01:20:25;100531.00;;;15.10;75.39
54806;BME280;62866;55.776;37.496;2023-05-19T01:31:22;100513.28;;;14.53;76.69
54806;BME280;62866;55.776;37.496;2023-05-19T01:33:48;100547.50;;;14.66;76.66
54806;BME280;62866;55.776;37.496;2023-05-19T01:36:16;100539.34;;;14.53;76.98
54806;BME280;62866;55.776;37.496;2023-05-19T01:38:44;100545.38;;;14.33;76.13
54806;BME280;62866;55.776;37.496;2023-05-19T01:41:11;100544.09;;;14.29;76.26
54806;BME280;62866;55.776;37.496;2023-05-19T01:43:37;100559.13;;;14.38;75.92
54806;BME280;62866;55.776;37.496;2023-05-19T01:46:04;100548.59;;;14.22;76.05
54806;BME280;62866;55.776;37.496;2023-05-19T01:48:31;100563.50;;;14.25;75.79
54806;BME280;62866;55.776;37.496;2023-05-19T01:50:58;100569.53;;;14.27;75.47
54806;BME280;62866;55.776;37.496;2023-05-19T01:53:24;100569.47;;;14.20;75.00
54806;BME280;62866;55.776;37.496;2023-05-19T01:55:52;100560.25;;;13.87;74.79
54806;BME280;62866;55.776;37.496;2023-05-19T01:58:58;100573.41;;;13.82;74.92
54806;BME280;62866;55.776;37.496;2023-05-19T02:01:40;100582.53;;;13.81;73.47
54806;BME280;62866;55.776;37.496;2023-05-19T02:07:07;100589.53;;;13.46;73.93
54806;BME280;62866;55.776;37.496;2023-05-19T02:09:43;100581.88;;;13.28;73.51
54806;BME280;62866;55.776;37.496;2023-05-19T02:12:27;100581.13;;;13.34;72.81
54806;BME280;62866;55.776;37.496;2023-05-19T02:17:32;100594.72;;;13.33;71.65
54806;BME280;62866;55.776;37.496;2023-05-19T02:20:03;100586.28;;;13.06;71.35
54806;BME280;62866;55.776;37.496;2023-05-19T02:22:29;100586.75;;;12.95;70.90
54806;BME280;62866;55.776;37.496;2023-05-19T02:24:55;100572.50;;;12.80;70.46
54806;BME280;62866;55.776;37.496;2023-05-19T02:27:21;100588.97;;;12.77;70.60
54806;BME280;62866;55.776;37.496;2023-05-19T02:29:47;100577.19;;;12.63;70.72
54806;BME280;62866;55.776;37.496;2023-05-19T02:32:13;100579.97;;;12.70;70.81
54806;BME280;62866;55.776;37.496;2023-05-19T02:34:39;100592.00;;;12.74;70.56
54806;BME280;62866;55.776;37.496;2023-05-19T02:37:06;100604.59;;;12.73;70.76
54806;BME280;62866;55.776;37.496;2023-05-19T02:39:32;100595.06;;;12.71;70.50
54806;BME280;62866;55.776;37.496;2023-05-19T02:41:59;100592.19;;;12.72;70.23
54806;BME280;62866;55.776;37.496;2023-05-19T02:44:25;100578.84;;;12.64;70.30
54806;BME280;62866;55.776;37.496;2023-05-19T02:46:51;100581.66;;;12.71;70.21
54806;BME280;62866;55.776;37.496;2023-05-19T02:49:16;100599.34;;;12.80;69.90
54806;BME280;62866;55.776;37.496;2023-05-19T02:51:42;100601.97;;;12.65;69.86
54806;BME280;62866;55.776;37.496;2023-05-19T02:54:07;100611.38;;;12.46;70.23
54806;BME280;62866;55.776;37.496;2023-05-19T02:56:33;100593.94;;;12.28;70.87
54806;BME280;62866;55.776;37.496;2023-05-19T02:58:58;100614.56;;;12.27;71.60
54806;BME280;62866;55.776;37.496;2023-05-19T03:01:25;100596.97;;;12.02;71.98
54806;BME280;62866;55.776;37.496;2023-05-19T03:03:50;100613.66;;;12.12;72.55
54806;BME280;62866;55.776;37.496;2023-05-19T03:06:16;100612.34;;;12.08;72.50
54806;BME280;62866;55.776;37.496;2023-05-19T03:08:42;100615.78;;;11.94;73.50
54806;BME280;62866;55.776;37.496;2023-05-19T03:11:08;100618.34;;;11.87;73.29
54806;BME280;62866;55.776;37.496;2023-05-19T03:13:33;100593.31;;;11.64;74.34
54806;BME280;62866;55.776;37.496;2023-05-19T03:15:59;100626.78;;;11.76;74.51
54806;BME280;62866;55.776;37.496;2023-05-19T03:18:26;100616.41;;;11.65;75.53
54806;BME280;62866;55.776;37.496;2023-05-19T03:20:52;100621.31;;;11.61;75.01
54806;BME280;62866;55.776;37.496;2023-05-19T03:23:20;100625.16;;;11.59;75.81
54806;BME280;62866;55.776;37.496;2023-05-19T03:25:46;100631.00;;;11.62;76.01
54806;BME280;62866;55.776;37.496;2023-05-19T03:28:12;100632.44;;;11.73;75.39
54806;BME280;62866;55.776;37.496;2023-05-19T03:30:37;100634.13;;;11.74;75.53
54806;BME280;62866;55.776;37.496;2023-05-19T03:33:03;100637.31;;;11.77;75.73
54806;BME280;62866;55.776;37.496;2023-05-19T03:35:29;100611.59;;;11.60;75.71
54806;BME280;62866;55.776;37.496;2023-05-19T03:37:55;100644.69;;;11.67;76.18
54806;BME280;62866;55.776;37.496;2023-05-19T03:40:20;100650.34;;;11.72;76.28
54806;BME280;62866;55.776;37.496;2023-05-19T03:42:46;100636.50;;;11.77;76.22
54806;BME280;62866;55.776;37.496;2023-05-19T03:45:11;100645.19;;;11.79;76.15
54806;BME280;62866;55.776;37.496;2023-05-19T03:47:37;100649.72;;;11.78;76.56
54806;BME280;62866;55.776;37.496;2023-05-19T03:50:03;100625.81;;;11.61;77.02
54806;BME280;62866;55.776;37.496;2023-05-19T03:52:29;100645.53;;;11.76;77.17
54806;BME280;62866;55.776;37.496;2023-05-19T03:54:54;100645.00;;;11.81;76.54
54806;BME280;62866;55.776;37.496;2023-05-19T03:57:22;100649.84;;;11.85;76.70
54806;BME280;62866;55.776;37.496;2023-05-19T03:59:47;100656.03;;;11.86;77.03
54806;BME280;62866;55.776;37.496;2023-05-19T04:02:13;100661.78;;;11.74;77.36
54806;BME280;62866;55.776;37.496;2023-05-19T04:04:38;100657.75;;;11.78;77.29
54806;BME280;62866;55.776;37.496;2023-05-19T04:07:04;100664.41;;;11.83;77.19
54806;BME280;62866;55.776;37.496;2023-05-19T04:09:30;100659.44;;;11.80;77.62
54806;BME280;62866;55.776;37.496;2023-05-19T04:12:00;100655.38;;;11.84;78.17
54806;BME280;62866;55.776;37.496;2023-05-19T04:14:27;100657.38;;;11.73;77.78
54806;BME280;62866;55.776;37.496;2023-05-19T04:16:53;100648.72;;;11.71;77.66
54806;BME280;62866;55.776;37.496;2023-05-19T04:19:21;100661.63;;;11.68;78.01
54806;BME280;62866;55.776;37.496;2023-05-19T04:21:47;100654.63;;;11.59;78.79
54806;BME280;62866;55.776;37.496;2023-05-19T04:24:12;100658.94;;;11.68;79.15
54806;BME280;62866;55.776;37.496;2023-05-19T04:26:38;100656.78;;;11.55;78.84
54806;BME280;62866;55.776;37.496;2023-05-19T04:29:06;100666.69;;;11.55;79.36
54806;BME280;62866;55.776;37.496;2023-05-19T04:31:33;100663.81;;;11.56;79.23
54806;BME280;62866;55.776;37.496;2023-05-19T04:34:00;100664.66;;;11.57;79.41
54806;BME280;62866;55.776;37.496;2023-05-19T04:36:26;100662.31;;;11.62;79.63
54806;BME280;62866;55.776;37.496;2023-05-19T04:38:51;100677.16;;;11.72;79.32
54806;BME280;62866;55.776;37.496;2023-05-19T04:41:19;100678.84;;;11.65;79.82
54806;BME280;62866;55.776;37.496;2023-05-19T04:43:45;100675.72;;;11.62;79.95
54806;BME280;62866;55.776;37.496;2023-05-19T04:46:12;100684.22;;;11.65;80.05
54806;BME280;62866;55.776;37.496;2023-05-19T04:48:38;100668.81;;;11.67;80.16
54806;BME280;62866;55.776;37.496;2023-05-19T04:51:07;100667.63;;;11.70;80.06
54806;BME280;62866;55.776;37.496;2023-05-19T04:53:32;100678.88;;;11.57;80.27
54806;BME280;62866;55.776;37.496;2023-05-19T04:55:58;100667.19;;;11.58;82.01
54806;BME280;62866;55.776;37.496;2023-05-19T04:58:26;100667.72;;;11.54;82.98
54806;BME280;62866;55.776;37.496;2023-05-19T05:00:53;100674.03;;;11.61;82.93
54806;BME280;62866;55.776;37.496;2023-05-19T05:03:28;100655.63;;;11.58;82.86
54806;BME280;62866;55.776;37.496;2023-05-19T05:05:54;100671.16;;;11.70;82.98
54806;BME280;62866;55.776;37.496;2023-05-19T05:08:21;100682.03;;;11.77;83.48
54806;BME280;62866;55.776;37.496;2023-05-19T05:10:51;100682.88;;;11.77;83.63
54806;BME280;62866;55.776;37.496;2023-05-19T05:13:20;100667.47;;;11.71;82.36
54806;BME280;62866;55.776;37.496;2023-05-19T05:15:45;100689.41;;;11.75;82.49
54806;BME280;62866;55.776;37.496;2023-05-19T05:18:12;100668.97;;;11.66;81.87
54806;BME280;62866;55.776;37.496;2023-05-19T05:20:40;100685.56;;;11.69;82.69
54806;BME280;62866;55.776;37.496;2023-05-19T05:23:06;100686.56;;;11.76;83.87
54806;BME280;62866;55.776;37.496;2023-05-19T05:25:34;100677.16;;;11.81;82.00
54806;BME280;62866;55.776;37.496;2023-05-19T05:28:00;100677.81;;;11.83;83.03
54806;BME280;62866;55.776;37.496;2023-05-19T05:30:29;100688.19;;;11.86;83.14
54806;BME280;62866;55.776;37.496;2023-05-19T05:32:55;100686.59;;;11.99;83.80
54806;BME280;62866;55.776;37.496;2023-05-19T05:35:22;100694.25;;;12.10;83.35
54806;BME280;62866;55.776;37.496;2023-05-19T05:37:48;100689.13;;;12.24;83.13
54806;BME280;62866;55.776;37.496;2023-05-19T05:40:14;100698.28;;;12.37;82.82
54806;BME280;62866;55.776;37.496;2023-05-19T05:42:40;100690.88;;;12.39;82.64
54806;BME280;62866;55.776;37.496;2023-05-19T05:45:06;100693.38;;;12.41;80.94
54806;BME280;62866;55.776;37.496;2023-05-19T05:47:32;100699.34;;;12.51;80.60
54806;BME280;62866;55.776;37.496;2023-05-19T05:49:58;100700.19;;;12.51;81.05
54806;BME280;62866;55.776;37.496;2023-05-19T05:52:28;100701.19;;;12.50;81.50
54806;BME280;62866;55.776;37.496;2023-05-19T05:54:54;100705.16;;;12.63;80.48
54806;BME280;62866;55.776;37.496;2023-05-19T05:57:20;100705.91;;;12.71;80.30
54806;BME280;62866;55.776;37.496;2023-05-19T05:59:46;100709.16;;;12.81;79.30
54806;BME280;62866;55.776;37.496;2023-05-19T06:02:12;100708.63;;;12.86;78.77
54806;BME280;62866;55.776;37.496;2023-05-19T06:04:37;100712.34;;;12.85;78.48
54806;BME280;62866;55.776;37.496;2023-05-19T06:07:03;100707.81;;;13.00;78.56
54806;BME280;62866;55.776;37.496;2023-05-19T06:09:29;100706.03;;;13.15;77.59
54806;BME280;62866;55.776;37.496;2023-05-19T06:11:57;100694.50;;;13.29;77.27
54806;BME280;62866;55.776;37.496;2023-05-19T06:14:24;100700.63;;;13.53;77.04
54806;BME280;62866;55.776;37.496;2023-05-19T06:16:50;100700.41;;;13.69;76.26
54806;BME280;62866;55.776;37.496;2023-05-19T06:19:16;100710.81;;;13.72;75.79
54806;BME280;62866;55.776;37.496;2023-05-19T06:21:42;100705.63;;;13.71;76.01
54806;BME280;62866;55.776;37.496;2023-05-19T06:24:08;100687.91;;;13.76;75.84
54806;BME280;62866;55.776;37.496;2023-05-19T06:26:33;100699.97;;;13.80;75.68
54806;BME280;62866;55.776;37.496;2023-05-19T06:28:59;100696.84;;;13.98;76.00
54806;BME280;62866;55.776;37.496;2023-05-19T06:31:25;100702.41;;;14.11;74.83
54806;BME280;62866;55.776;37.496;2023-05-19T06:33:51;100706.94;;;14.11;74.63
54806;BME280;62866;55.776;37.496;2023-05-19T06:36:18;100696.94;;;14.04;74.85
54806;BME280;62866;55.776;37.496;2023-05-19T06:38:43;100706.72;;;14.27;73.97
54806;BME280;62866;55.776;37.496;2023-05-19T06:41:09;100706.38;;;14.51;73.41
54806;BME280;62866;55.776;37.496;2023-05-19T06:43:34;100710.47;;;14.68;72.42
54806;BME280;62866;55.776;37.496;2023-05-19T06:46:00;100698.78;;;14.82;72.24
54806;BME280;62866;55.776;37.496;2023-05-19T06:48:26;100706.94;;;14.89;72.12
54806;BME280;62866;55.776;37.496;2023-05-19T06:50:51;100690.03;;;14.74;72.71
54806;BME280;62866;55.776;37.496;2023-05-19T06:53:18;100707.97;;;14.88;72.30
54806;BME280;62866;55.776;37.496;2023-05-19T06:55:44;100686.75;;;14.78;72.00
54806;BME280;62866;55.776;37.496;2023-05-19T06:58:10;100710.66;;;14.88;72.39
54806;BME280;62866;55.776;37.496;2023-05-19T07:00:35;100706.50;;;14.86;72.26
54806;BME280;62866;55.776;37.496;2023-05-19T07:03:01;100715.59;;;14.85;71.80
54806;BME280;62866;55.776;37.496;2023-05-19T07:05:27;100706.88;;;14.82;72.22
54806;BME280;62866;55.776;37.496;2023-05-19T07:07:53;100723.16;;;14.96;70.43
54806;BME280;62866;55.776;37.496;2023-05-19T07:10:18;100721.16;;;15.04;69.58
54806;BME280;62866;55.776;37.496;2023-05-19T07:12:45;100721.72;;;15.21;68.58
54806;BME280;62866;55.776;37.496;2023-05-19T07:15:11;100710.53;;;15.24;67.41
54806;BME280;62866;55.776;37.496;2023-05-19T07:17:36;100714.88;;;15.25;66.88
54806;BME280;62866;55.776;37.496;2023-05-19T07:20:02;100723.38;;;15.22;66.17
54806;BME280;62866;55.776;37.496;2023-05-19T07:22:31;100718.50;;;15.11;66.49
54806;BME280;62866;55.776;37.496;2023-05-19T07:24:59;100710.88;;;15.14;66.17
54806;BME280;62866;55.776;37.496;2023-05-19T07:27:25;100702.16;;;15.12;66.48
54806;BME280;62866;55.776;37.496;2023-05-19T07:29:50;100726.34;;;15.06;66.27
54806;BME280;62866;55.776;37.496;2023-05-19T07:32:16;100718.19;;;14.99;66.99
54806;BME280;62866;55.776;37.496;2023-05-19T07:34:41;100715.06;;;15.24;66.31
54806;BME280;62866;55.776;37.496;2023-05-19T07:37:07;100734.00;;;15.58;65.47
54806;BME280;62866;55.776;37.496;2023-05-19T07:39:33;100718.56;;;15.73;64.28
54806;BME280;62866;55.776;37.496;2023-05-19T07:41:59;100725.59;;;15.74;63.25
54806;BME280;62866;55.776;37.496;2023-05-19T07:44:25;100730.81;;;15.82;62.04
54806;BME280;62866;55.776;37.496;2023-05-19T07:46:52;100727.88;;;15.71;62.58
54806;BME280;62866;55.776;37.496;2023-05-19T07:49:17;100717.88;;;15.65;61.72
54806;BME280;62866;55.776;37.496;2023-05-19T07:51:43;100731.03;;;15.81;62.08
54806;BME280;62866;55.776;37.496;2023-05-19T07:54:08;100727.22;;;16.10;61.59
54806;BME280;62866;55.776;37.496;2023-05-19T07:56:34;100728.72;;;16.25;60.94
54806;BME280;62866;55.776;37.496;2023-05-19T07:59:00;100718.41;;;16.49;57.47
54806;BME280;62866;55.776;37.496;2023-05-19T08:01:25;100727.00;;;16.85;55.94
54806;BME280;62866;55.776;37.496;2023-05-19T08:03:51;100710.78;;;17.25;54.61
54806;BME280;62866;55.776;37.496;2023-05-19T08:06:16;100713.69;;;17.63;52.47
54806;BME280;62866;55.776;37.496;2023-05-19T08:08:42;100719.91;;;17.70;52.15
54806;BME280;62866;55.776;37.496;2023-05-19T08:11:07;100712.06;;;18.06;51.78
54806;BME280;62866;55.776;37.496;2023-05-19T08:13:33;100715.56;;;18.58;49.36
54806;BME280;62866;55.776;37.496;2023-05-19T08:15:59;100721.75;;;18.97;48.90
54806;BME280;62866;55.776;37.496;2023-05-19T08:18:25;100729.28;;;19.19;47.64
54806;BME280;62866;55.776;37.496;2023-05-19T08:20:51;100720.69;;;20.02;46.13
54806;BME280;62866;55.776;37.496;2023-05-19T08:23:16;100708.38;;;21.54;42.46
54806;BME280;62866;55.776;37.496;2023-05-19T08:25:42;100721.25;;;23.45;39.68
54806;BME280;62866;55.776;37.496;2023-05-19T08:28:08;100714.19;;;24.27;37.31
54806;BME280;62866;55.776;37.496;2023-05-19T08:30:34;100725.09;;;24.48;34.63
54806;BME280;62866;55.776;37.496;2023-05-19T08:32:59;100727.66;;;24.33;33.92
54806;BME280;62866;55.776;37.496;2023-05-19T08:35:25;100731.28;;;23.57;32.91
54806;BME280;62866;55.776;37.496;2023-05-19T08:37:50;100733.75;;;22.75;34.86
54806;BME280;62866;55.776;37.496;2023-05-19T08:40:17;100715.38;;;23.37;35.14
54806;BME280;62866;55.776;37.496;2023-05-19T08:42:44;100734.78;;;24.61;33.84
54806;BME280;62866;55.776;37.496;2023-05-19T08:45:10;100727.50;;;24.72;32.79
54806;BME280;62866;55.776;37.496;2023-05-19T08:47:36;100713.84;;;23.41;33.47
54806;BME280;62866;55.776;37.496;2023-05-19T08:50:05;100717.72;;;22.21;34.38
54806;BME280;62866;55.776;37.496;2023-05-19T08:52:51;100723.00;;;21.06;35.79
54806;BME280;62866;55.776;37.496;2023-05-19T08:56:03;100725.75;;;20.17;37.53
54806;BME280;62866;55.776;37.496;2023-05-19T08:58:08;100707.91;;;19.54;38.38
54806;BME280;62866;55.776;37.496;2023-05-19T09:00:35;100718.34;;;19.08;38.83
54806;BME280;62866;55.776;37.496;2023-05-19T09:03:01;100720.34;;;18.63;39.91
54806;BME280;62866;55.776;37.496;2023-05-19T09:05:27;100712.66;;;18.53;39.49
54806;BME280;62866;55.776;37.496;2023-05-19T09:07:53;100716.75;;;18.31;40.41
54806;BME280;62866;55.776;37.496;2023-05-19T09:10:19;100706.59;;;18.19;40.56
54806;BME280;62866;55.776;37.496;2023-05-19T09:12:45;100698.16;;;17.96;41.64
54806;BME280;62866;55.776;37.496;2023-05-19T09:15:12;100714.03;;;18.31;41.33
54806;BME280;62866;55.776;37.496;2023-05-19T09:17:40;100697.91;;;18.80;40.82
54806;BME280;62866;55.776;37.496;2023-05-19T09:20:07;100688.00;;;18.92;41.10
54806;BME280;62866;55.776;37.496;2023-05-19T09:22:45;100696.66;;;19.08;40.78
54806;BME280;62866;55.776;37.496;2023-05-19T09:25:24;100693.81;;;18.96;41.63
54806;BME280;62866;55.776;37.496;2023-05-19T09:27:53;100700.06;;;18.97;41.36
54806;BME280;62866;55.776;37.496;2023-05-19T09:30:19;100692.88;;;19.09;41.08
54806;BME280;62866;55.776;37.496;2023-05-19T09:32:45;100702.34;;;19.00;42.10
54806;BME280;62866;55.776;37.496;2023-05-19T09:35:11;100705.06;;;19.00;41.56
54806;BME280;62866;55.776;37.496;2023-05-19T09:37:40;100695.69;;;18.95;41.91
54806;BME280;62866;55.776;37.496;2023-05-19T09:40:09;100703.69;;;18.84;41.71
54806;BME280;62866;55.776;37.496;2023-05-19T09:42:38;100704.44;;;18.73;41.86
54806;BME280;62866;55.776;37.496;2023-05-19T09:45:04;100687.91;;;18.81;42.25
54806;BME280;62866;55.776;37.496;2023-05-19T09:47:38;100696.38;;;18.91;41.88
54806;BME280;62866;55.776;37.496;2023-05-19T09:50:06;100682.34;;;18.69;41.77
54806;BME280;62866;55.776;37.496;2023-05-19T09:52:42;100682.03;;;18.52;41.65
54806;BME280;62866;55.776;37.496;2023-05-19T09:55:10;100693.63;;;18.28;42.60
54806;BME280;62866;55.776;37.496;2023-05-19T09:57:37;100663.13;;;18.08;41.97
54806;BME280;62866;55.776;37.496;2023-05-19T10:00:07;100678.88;;;18.24;42.58
54806;BME280;62866;55.776;37.496;2023-05-19T10:02:45;100680.84;;;18.42;42.25
54806;BME280;62866;55.776;37.496;2023-05-19T10:05:19;100685.13;;;18.63;42.18
54806;BME280;62866;55.776;37.496;2023-05-19T10:07:49;100690.47;;;18.69;41.30
54806;BME280;62866;55.776;37.496;2023-05-19T10:10:16;100682.97;;;18.71;41.61
54806;BME280;62866;55.776;37.496;2023-05-19T10:12:42;100685.19;;;18.81;41.98
54806;BME280;62866;55.776;37.496;2023-05-19T10:15:14;100680.75;;;18.62;41.49
54806;BME280;62866;55.776;37.496;2023-05-19T10:17:41;100664.84;;;18.72;41.77
54806;BME280;62866;55.776;37.496;2023-05-19T10:20:11;100669.50;;;18.89;41.08
54806;BME280;62866;55.776;37.496;2023-05-19T10:22:39;100670.81;;;19.05;40.96
54806;BME280;62866;55.776;37.496;2023-05-19T10:25:06;100650.59;;;19.01;41.20
54806;BME280;62866;55.776;37.496;2023-05-19T10:27:44;100663.78;;;19.22;40.88
54806;BME280;62866;55.776;37.496;2023-05-19T10:30:20;100661.84;;;19.05;41.09
54806;BME280;62866;55.776;37.496;2023-05-19T10:32:50;100653.88;;;19.10;41.01
54806;BME280;62866;55.776;37.496;2023-05-19T10:40:27;100672.81;;;19.34;40.53
54806;BME280;62866;55.776;37.496;2023-05-19T10:46:00;100659.78;;;19.43;39.44
54806;BME280;62866;55.776;37.496;2023-05-19T10:48:26;100656.81;;;19.51;39.59
54806;BME280;62866;55.776;37.496;2023-05-19T10:50:57;100654.69;;;19.53;40.21
54806;BME280;62866;55.776;37.496;2023-05-19T10:53:29;100674.50;;;19.54;40.75
54806;BME280;62866;55.776;37.496;2023-05-19T10:55:55;100664.06;;;19.57;40.67
54806;BME280;62866;55.776;37.496;2023-05-19T10:58:55;100687.47;;;19.70;40.67
54806;BME280;62866;55.776;37.496;2023-05-19T11:01:21;100663.50;;;19.67;39.80
54806;BME280;62866;55.776;37.496;2023-05-19T11:03:50;100658.69;;;19.69;38.88
54806;BME280;62866;55.776;37.496;2023-05-19T11:06:26;100667.75;;;19.63;39.48
54806;BME280;62866;55.776;37.496;2023-05-19T11:09:00;100660.13;;;19.53;39.02
54806;BME280;62866;55.776;37.496;2023-05-19T11:11:43;100678.06;;;19.54;39.58
54806;BME280;62866;55.776;37.496;2023-05-19T11:14:10;100671.31;;;19.39;38.72
54806;BME280;62866;55.776;37.496;2023-05-19T11:16:36;100667.91;;;19.43;39.54
54806;BME280;62866;55.776;37.496;2023-05-19T11:19:01;100670.31;;;19.58;39.10
54806;BME280;62866;55.776;37.496;2023-05-19T11:21:40;100672.41;;;19.74;39.26
54806;BME280;62866;55.776;37.496;2023-05-19T11:24:07;100667.50;;;19.83;38.89
54806;BME280;62866;55.776;37.496;2023-05-19T11:26:40;100659.81;;;19.80;38.92
54806;BME280;62866;55.776;37.496;2023-05-19T11:29:07;100665.91;;;19.75;39.68
54806;BME280;62866;55.776;37.496;2023-05-19T11:31:34;100652.13;;;19.58;38.48
54806;BME280;62866;55.776;37.496;2023-05-19T11:34:01;100644.63;;;19.36;38.89
54806;BME280;62866;55.776;37.496;2023-05-19T11:36:27;100671.72;;;19.60;39.27
54806;BME280;62866;55.776;37.496;2023-05-19T11:38:53;100676.09;;;19.61;38.91
54806;BME280;62866;55.776;37.496;2023-05-19T11:41:19;100654.03;;;19.58;37.95
54806;BME280;62866;55.776;37.496;2023-05-19T11:43:46;100669.75;;;19.67;38.01
54806;BME280;62866;55.776;37.496;2023-05-19T11:46:12;100681.31;;;19.63;37.91
54806;BME280;62866;55.776;37.496;2023-05-19T11:48:38;100672.97;;;19.40;37.59
54806;BME280;62866;55.776;37.496;2023-05-19T11:51:05;100677.56;;;19.39;37.94
54806;BME280;62866;55.776;37.496;2023-05-19T11:53:31;100675.84;;;19.45;37.58
54806;BME280;62866;55.776;37.496;2023-05-19T11:56:02;100682.53;;;19.42;37.49
54806;BME280;62866;55.776;37.496;2023-05-19T11:58:28;100681.34;;;19.38;37.88
54806;BME280;62866;55.776;37.496;2023-05-19T12:00:54;100688.72;;;19.31;37.29
54806;BME280;62866;55.776;37.496;2023-05-19T12:03:22;100678.31;;;19.28;37.15
54806;BME280;62866;55.776;37.496;2023-05-19T12:05:52;100687.41;;;19.15;36.60
54806;BME280;62866;55.776;37.496;2023-05-19T12:08:18;100687.84;;;18.87;36.11
54806;BME280;62866;55.776;37.496;2023-05-19T12:10:48;100680.88;;;18.73;36.34
54806;BME280;62866;55.776;37.496;2023-05-19T12:13:15;100693.25;;;18.63;36.04
54806;BME280;62866;55.776;37.496;2023-05-19T12:15:40;100677.28;;;18.48;36.21
54806;BME280;62866;55.776;37.496;2023-05-19T12:18:06;100682.66;;;18.54;36.70
54806;BME280;62866;55.776;37.496;2023-05-19T12:20:32;100676.50;;;18.72;36.92
54806;BME280;62866;55.776;37.496;2023-05-19T12:23:00;100685.81;;;18.83;36.55
54806;BME280;62866;55.776;37.496;2023-05-19T12:25:28;100692.16;;;18.95;36.29
54806;BME280;62866;55.776;37.496;2023-05-19T12:27:58;100673.97;;;19.02;36.50
54806;BME280;62866;55.776;37.496;2023-05-19T12:30:28;100691.94;;;19.21;36.71
54806;BME280;62866;55.776;37.496;2023-05-19T12:32:54;100693.19;;;19.19;36.82
54806;BME280;62866;55.776;37.496;2023-05-19T12:35:28;100693.94;;;19.08;36.57
54806;BME280;62866;55.776;37.496;2023-05-19T12:37:54;100682.00;;;18.90;36.35
54806;BME280;62866;55.776;37.496;2023-05-19T12:40:20;100679.03;;;18.92;36.50
54806;BME280;62866;55.776;37.496;2023-05-19T12:42:46;100684.50;;;19.10;37.11
54806;BME280;62866;55.776;37.496;2023-05-19T12:45:12;100687.41;;;19.15;36.66
54806;BME280;62866;55.776;37.496;2023-05-19T12:47:38;100695.56;;;19.09;36.52
54806;BME280;62866;55.776;37.496;2023-05-19T12:50:04;100695.22;;;19.05;37.23
54806;BME280;62866;55.776;37.496;2023-05-19T12:52:33;100665.94;;;18.89;37.22
54806;BME280;62866;55.776;37.496;2023-05-19T12:55:04;100689.31;;;18.83;36.65
54806;BME280;62866;55.776;37.496;2023-05-19T12:57:33;100654.94;;;18.52;37.94
54806;BME280;62866;55.776;37.496;2023-05-19T13:00:20;100691.66;;;18.80;37.61
54806;BME280;62866;55.776;37.496;2023-05-19T13:03:04;100689.31;;;18.83;37.10
54806;BME280;62866;55.776;37.496;2023-05-19T13:05:34;100676.94;;;18.69;36.84
54806;BME280;62866;55.776;37.496;2023-05-19T13:08:04;100691.75;;;18.67;36.20